Time;durP1;ratioP1;P1;durP2;ratioP2;P2;SDS_P1;SDS_P2;PMS_P1;PMS_P2;Temp;Humidity;BMP_temperature;BMP_pressure;BME280_temperature;BME280_humidity;BME280_pressure;Samples;Min_cycle;Max_cycle;Signal;HPM_P1;HPM_P2
2022/04/02 00:01:19;;;;;;;0.10;0.10;;;2.30;87.40;12.80;88045.00;;;;5026380;28;20218;-72
2022/04/02 00:03:49;;;;;;;0.20;0.20;;;2.30;99.90;12.80;88045.00;;;;5011165;28;20247;-71
2022/04/02 00:06:18;;;;;;;0.10;0.10;;;2.40;99.90;12.80;88045.00;;;;5011566;28;20196;-71
2022/04/02 00:08:46;;;;;;;0.20;0.20;;;2.30;99.90;12.80;88045.00;;;;5010770;28;20242;-71
2022/04/02 00:11:14;;;;;;;0.10;0.10;;;2.30;99.90;12.80;88045.00;;;;5011557;28;20269;-72
2022/04/02 00:13:42;;;;;;;0.13;0.13;;;2.30;99.90;12.80;88045.00;;;;5011452;28;20206;-73
2022/04/02 00:16:10;;;;;;;0.20;0.20;;;2.30;99.90;12.80;88045.00;;;;5011019;28;20345;-72
2022/04/02 00:18:39;;;;;;;0.10;0.10;;;2.30;99.90;12.80;88045.00;;;;5019961;28;20276;-72
2022/04/02 00:21:08;;;;;;;0.17;0.17;;;2.30;99.90;12.80;88045.00;;;;5011803;28;20588;-72
2022/04/02 00:23:39;;;;;;;0.20;0.20;;;2.30;99.90;12.80;88045.00;;;;5012096;28;20196;-72
2022/04/02 00:26:08;;;;;;;0.10;0.10;;;2.30;99.90;12.80;88045.00;;;;5011187;28;20208;-72
2022/04/02 00:28:39;;;;;;;0.20;0.20;;;2.30;99.90;12.80;88045.00;;;;5011401;28;20254;-72
2022/04/02 00:31:11;;;;;;;0.10;0.10;;;2.20;99.90;12.80;88045.00;;;;5010278;28;20250;-73
2022/04/02 00:33:43;;;;;;;0.10;0.10;;;2.20;99.90;12.80;88045.00;;;;5007230;28;20656;-73
2022/04/02 00:36:13;;;;;;;0.10;0.10;;;2.20;99.90;12.80;88045.00;;;;5027800;28;20254;-72
2022/04/02 00:38:42;;;;;;;0.10;0.10;;;2.20;99.90;12.80;88045.00;;;;5015261;28;20274;-71
2022/04/02 00:41:12;;;;;;;0.10;0.10;;;2.20;99.90;12.80;88045.00;;;;5008316;28;20210;-73
2022/04/02 00:43:42;;;;;;;0.20;0.20;;;2.20;99.90;12.80;88045.00;;;;5034241;28;20196;-71
2022/04/02 00:46:13;;;;;;;0.20;0.20;;;2.10;99.90;12.80;88045.00;;;;5038654;28;20203;-71
2022/04/02 00:48:41;;;;;;;0.20;0.20;;;2.10;99.90;12.80;88045.00;;;;5011608;28;20250;-71
2022/04/02 00:51:15;;;;;;;0.10;0.10;;;2.10;99.90;12.80;88045.00;;;;5010978;28;20851;-72
2022/04/02 00:53:49;;;;;;;0.10;0.10;;;2.00;1.00;12.80;88045.00;;;;5009441;28;20280;-72
2022/04/02 00:56:18;;;;;;;0.10;0.10;;;1.90;99.90;12.80;88045.00;;;;5009825;28;20712;-74
2022/04/02 00:58:47;;;;;;;0.10;0.10;;;1.90;1.00;12.80;88045.00;;;;5010085;28;20227;-72
2022/04/02 01:01:17;;;;;;;0.20;0.20;;;1.90;1.00;12.80;88045.00;;;;5028668;28;20206;-71
2022/04/02 01:03:49;;;;;;;0.20;0.20;;;1.90;99.90;12.80;88045.00;;;;5027614;28;20246;-71
2022/04/02 01:06:23;;;;;;;0.10;0.10;;;1.80;99.90;12.80;88045.00;;;;5012511;28;20199;-72
2022/04/02 01:08:54;;;;;;;0.10;0.10;;;1.80;1.00;12.80;88045.00;;;;5008895;28;20210;-71
2022/04/02 01:11:23;;;;;;;0.20;0.20;;;1.80;1.00;12.80;88045.00;;;;5013223;28;20289;-73
2022/04/02 01:13:55;;;;;;;0.17;0.17;;;1.80;99.90;12.80;88045.00;;;;5012798;28;20200;-71
2022/04/02 01:16:23;;;;;;;0.13;0.13;;;1.80;99.90;12.80;88045.00;;;;5012501;28;20266;-71
2022/04/02 01:18:59;;;;;;;0.13;0.13;;;1.80;99.90;12.80;88045.00;;;;5014355;28;20699;-72
2022/04/02 01:21:29;;;;;;;0.20;0.20;;;1.80;99.90;12.80;88045.00;;;;5025666;28;20206;-71
2022/04/02 01:24:04;;;;;;;0.13;0.13;;;1.80;99.90;12.80;88045.00;;;;5025148;28;20254;-72
2022/04/02 01:26:33;;;;;;;0.10;0.10;;;1.70;99.90;12.80;88045.00;;;;5029388;28;20219;-71
2022/04/02 01:29:13;;;;;;;0.15;0.15;;;1.70;99.90;12.80;88045.00;;;;5012655;28;20206;-71
2022/04/02 01:31:48;;;;;;;0.10;0.10;;;1.70;99.90;12.80;88045.00;;;;5028427;28;20273;-71
2022/04/02 01:34:20;;;;;;;0.20;0.20;;;1.80;99.90;12.80;88045.00;;;;5029216;28;20274;-72
2022/04/02 01:36:52;;;;;;;0.10;0.10;;;1.80;99.90;12.80;88045.00;;;;5029130;28;20223;-72
2022/04/02 01:39:26;;;;;;;0.10;0.10;;;1.80;99.90;12.80;88045.00;;;;5029173;28;20192;-73
2022/04/02 01:41:54;;;;;;;0.10;0.10;;;1.80;99.90;12.80;88045.00;;;;5023562;28;20793;-73
2022/04/02 01:44:29;;;;;;;0.20;0.20;;;1.80;99.90;12.80;88045.00;;;;5019511;28;20705;-73
2022/04/02 01:46:58;;;;;;;0.20;0.20;;;1.70;99.90;12.80;88045.00;;;;5029133;28;20683;-73
2022/04/02 01:49:27;;;;;;;0.20;0.20;;;1.70;99.90;12.80;88045.00;;;;5012681;28;20669;-72
2022/04/02 01:51:58;;;;;;;0.10;0.10;;;1.70;99.90;12.80;88045.00;;;;5011640;28;20258;-72
2022/04/02 01:54:27;;;;;;;0.10;0.10;;;1.70;99.90;12.80;88045.00;;;;4998434;28;20223;-72
2022/04/02 01:57:05;;;;;;;0.10;0.10;;;1.60;99.90;12.80;88045.00;;;;5012031;28;20215;-73
2022/04/02 01:59:34;;;;;;;0.15;0.15;;;1.60;1.00;12.80;88045.00;;;;5012034;28;20207;-72
2022/04/02 02:02:02;;;;;;;0.20;0.20;;;1.50;1.00;12.80;88045.00;;;;5011649;28;20732;-73
2022/04/02 02:04:31;;;;;;;0.20;0.20;;;1.50;1.00;12.80;88045.00;;;;5028700;28;20243;-73
2022/04/02 02:06:59;;;;;;;0.10;0.10;;;1.50;1.00;12.80;88045.00;;;;5027777;28;20294;-71
2022/04/02 02:09:28;;;;;;;0.20;0.20;;;1.50;1.00;12.80;88045.00;;;;5012843;28;20271;-72
2022/04/02 02:12:15;;;;;;;0.20;0.20;;;1.50;1.00;12.80;88045.00;;;;5013352;28;20277;-72
2022/04/02 02:15:03;;;;;;;0.20;0.20;;;1.50;1.00;12.80;88045.00;;;;5010477;28;20290;-72
2022/04/02 02:17:32;;;;;;;0.20;0.20;;;1.50;1.00;12.80;88045.00;;;;5011715;28;20227;-73
2022/04/02 02:20:01;;;;;;;0.10;0.10;;;1.50;1.00;12.80;88045.00;;;;5013957;28;20204;-73
2022/04/02 02:22:29;;;;;;;0.20;0.20;;;1.40;1.00;12.80;88045.00;;;;5011359;28;20216;-73
2022/04/02 02:24:59;;;;;;;0.13;0.13;;;1.40;1.00;12.80;88045.00;;;;5029629;28;20223;-73
2022/04/02 02:27:27;;;;;;;0.10;0.10;;;1.40;1.00;12.80;88045.00;;;;5015053;28;20291;-72
2022/04/02 02:29:55;;;;;;;0.10;0.10;;;1.50;1.00;12.80;88045.00;;;;5011649;28;20673;-72
2022/04/02 02:32:25;;;;;;;0.20;0.20;;;1.40;1.00;12.80;88045.00;;;;5012012;28;20219;-72
2022/04/02 02:37:45;;;;;;;0.20;0.20;;;1.40;1.00;12.80;88045.00;;;;5013996;28;20636;-72
2022/04/02 02:40:15;;;;;;;0.10;0.10;;;1.40;1.00;12.80;88045.00;;;;5011710;28;20251;-72
2022/04/02 02:42:44;;;;;;;0.10;0.10;;;1.40;1.00;12.80;88045.00;;;;5011621;28;20311;-72
2022/04/02 02:45:25;;;;;;;0.20;0.20;;;1.40;1.00;12.80;88045.00;;;;5011411;28;20273;-72
2022/04/02 02:47:59;;;;;;;0.10;0.10;;;1.40;1.00;12.80;88045.00;;;;5007714;28;20291;-72
2022/04/02 02:50:43;;;;;;;0.20;0.20;;;1.40;1.00;12.80;88045.00;;;;4992146;28;20200;-72
2022/04/02 02:53:13;;;;;;;0.20;0.20;;;1.50;99.90;12.80;88045.00;;;;5005392;28;20315;-73
2022/04/02 02:55:44;;;;;;;0.20;0.20;;;1.40;99.90;12.80;88045.00;;;;5019591;28;20257;-73
2022/04/02 02:58:13;;;;;;;0.20;0.20;;;1.40;99.90;12.80;88045.00;;;;5019714;28;20692;-72
2022/04/02 03:00:42;;;;;;;0.10;0.10;;;1.40;99.90;12.80;88045.00;;;;5018939;28;20195;-71
2022/04/02 03:03:18;;;;;;;0.10;0.10;;;1.40;99.90;12.80;88045.00;;;;5011743;28;20729;-71
2022/04/02 03:05:49;;;;;;;0.10;0.10;;;1.40;99.90;12.80;88045.00;;;;5011663;28;20196;-72
2022/04/02 03:08:19;;;;;;;0.15;0.15;;;1.30;99.90;12.80;88045.00;;;;5017091;28;20253;-72
2022/04/02 03:10:55;;;;;;;0.10;0.10;;;1.30;72.00;12.80;88045.00;;;;5034800;28;20200;-71
2022/04/02 03:13:28;;;;;;;0.20;0.20;;;1.20;1.00;12.80;88045.00;;;;5012799;28;20441;-72
2022/04/02 03:16:05;;;;;;;0.10;0.10;;;1.30;1.00;12.80;88045.00;;;;4998617;28;20204;-71
2022/04/02 03:18:36;;;;;;;0.10;0.10;;;1.30;1.00;12.80;88045.00;;;;5009106;28;20227;-72
2022/04/02 03:21:09;;;;;;;0.20;0.20;;;1.30;1.00;12.80;88045.00;;;;5023219;28;20196;-72
2022/04/02 03:23:38;;;;;;;0.10;0.10;;;1.20;1.00;12.80;88045.00;;;;5011857;28;20223;-73
2022/04/02 03:26:07;;;;;;;0.20;0.20;;;1.20;1.00;12.80;88045.00;;;;5010853;28;20754;-73
2022/04/02 03:28:40;;;;;;;0.10;0.10;;;1.20;1.00;12.80;88045.00;;;;5010268;28;20250;-72
2022/04/02 03:31:08;;;;;;;0.15;0.15;;;1.30;1.00;12.80;88045.00;;;;4990950;28;20220;-72
2022/04/02 03:33:39;;;;;;;0.13;0.13;;;1.20;1.00;12.80;88045.00;;;;5002630;28;20203;-72
2022/04/02 03:36:10;;;;;;;0.10;0.10;;;1.20;1.00;12.80;88045.00;;;;5010184;28;20208;-73
2022/04/02 03:38:39;;;;;;;0.20;0.20;;;1.20;1.00;12.80;88045.00;;;;5027203;28;20250;-71
2022/04/02 03:41:14;;;;;;;0.10;0.10;;;1.20;1.00;12.80;88045.00;;;;5028769;28;20194;-72
2022/04/02 03:43:46;;;;;;;0.20;0.20;;;1.10;1.00;12.80;88045.00;;;;5015244;28;20200;-72
2022/04/02 03:49:08;;;;;;;0.20;0.20;;;1.10;1.00;12.80;88045.00;;;;5016646;28;20199;-73
2022/04/02 03:51:37;;;;;;;0.20;0.20;;;1.10;1.00;12.80;88045.00;;;;5011809;28;20250;-73
2022/04/02 03:54:10;;;;;;;0.20;0.20;;;1.00;1.00;12.80;88045.00;;;;5026931;28;20205;-73
2022/04/02 03:56:45;;;;;;;0.20;0.20;;;1.00;1.00;12.80;88045.00;;;;5006691;28;20200;-73
2022/04/02 03:59:16;;;;;;;0.20;0.20;;;1.00;1.00;12.80;88045.00;;;;5012152;28;20211;-74
2022/04/02 04:01:48;;;;;;;0.20;0.20;;;1.00;1.00;12.80;88045.00;;;;5027104;28;20253;-73
2022/04/02 04:04:17;;;;;;;0.20;0.20;;;1.00;1.00;12.80;88045.00;;;;5028446;28;20222;-73
2022/04/02 04:06:46;;;;;;;0.20;0.20;;;1.00;1.00;12.80;88045.00;;;;5009955;28;20302;-73
2022/04/02 04:09:14;;;;;;;0.20;0.20;;;0.90;1.00;12.80;88045.00;;;;5010065;28;20199;-72
2022/04/02 04:11:48;;;;;;;0.10;0.10;;;0.90;1.00;12.80;88045.00;;;;5010483;28;20215;-71
2022/04/02 04:14:19;;;;;;;0.20;0.20;;;0.80;1.00;12.80;88045.00;;;;5013557;28;20222;-72
2022/04/02 04:16:48;;;;;;;0.20;0.20;;;0.80;1.00;12.80;88045.00;;;;5021287;28;20199;-73
2022/04/02 04:19:16;;;;;;;0.20;0.20;;;0.70;1.00;12.80;88045.00;;;;5022957;28;20591;-72
2022/04/02 04:21:46;;;;;;;0.20;0.20;;;0.70;1.00;12.80;88045.00;;;;5010199;28;20211;-72
2022/04/02 04:24:15;;;;;;;0.20;0.20;;;0.60;1.00;12.80;88045.00;;;;5010726;28;20608;-73
2022/04/02 04:26:46;;;;;;;0.20;0.20;;;0.60;1.00;12.80;88045.00;;;;5010214;28;20207;-71
2022/04/02 04:29:15;;;;;;;0.20;0.20;;;0.60;1.00;12.80;88045.00;;;;4997719;28;20259;-74
2022/04/02 04:31:44;;;;;;;0.20;0.20;;;0.60;1.00;12.80;88045.00;;;;4995014;28;20227;-73
2022/04/02 04:34:13;;;;;;;0.20;0.20;;;0.60;1.00;12.80;88045.00;;;;4993468;28;20208;-73
2022/04/02 04:36:41;;;;;;;0.20;0.20;;;0.60;1.00;12.80;88045.00;;;;5015058;28;20669;-73
2022/04/02 04:39:09;;;;;;;0.20;0.20;;;0.60;1.00;12.80;88045.00;;;;5025467;28;20229;-73
2022/04/02 04:41:41;;;;;;;0.20;0.20;;;0.60;1.00;12.80;88045.00;;;;5021312;28;20208;-73
2022/04/02 04:44:12;;;;;;;0.20;0.20;;;0.50;1.00;12.80;88045.00;;;;5013905;28;20195;-72
2022/04/02 04:46:43;;;;;;;0.20;0.20;;;0.50;1.00;12.80;88045.00;;;;5013547;28;20744;-72
2022/04/02 04:49:15;;;;;;;0.20;0.20;;;0.50;1.00;12.80;88045.00;;;;5013979;28;20573;-72
2022/04/02 04:51:50;;;;;;;0.20;0.20;;;0.50;1.00;12.80;88045.00;;;;5014787;28;20227;-72
2022/04/02 04:54:18;;;;;;;0.20;0.20;;;0.50;1.00;12.80;88045.00;;;;5014993;28;20227;-73
2022/04/02 04:56:47;;;;;;;0.20;0.20;;;0.50;1.00;12.80;88045.00;;;;5029722;28;20306;-71
2022/04/02 04:59:21;;;;;;;0.20;0.20;;;0.50;1.00;12.80;88045.00;;;;5025039;28;20219;-73
2022/04/02 05:01:51;;;;;;;0.20;0.20;;;0.50;15.10;12.80;88045.00;;;;5033404;28;20218;-73
2022/04/02 05:04:20;;;;;;;0.20;0.20;;;0.50;93.90;12.80;88045.00;;;;5027780;28;20196;-72
2022/04/02 05:06:53;;;;;;;0.20;0.20;;;0.40;1.00;12.80;88045.00;;;;5012020;28;20207;-72
2022/04/02 05:09:23;;;;;;;0.10;0.10;;;0.50;1.00;12.80;88045.00;;;;5002237;28;20215;-72
2022/04/02 05:11:54;;;;;;;0.20;0.20;;;0.40;4.00;12.80;88045.00;;;;5030003;28;20250;-72
2022/04/02 05:14:24;;;;;;;0.20;0.20;;;0.40;1.00;12.80;88045.00;;;;5022906;28;20235;-71
2022/04/02 05:16:56;;;;;;;0.20;0.20;;;0.40;1.00;12.80;88045.00;;;;5009478;28;20201;-72
2022/04/02 05:19:29;;;;;;;0.20;0.20;;;0.40;1.00;12.80;88045.00;;;;4993832;28;20637;-73
2022/04/02 05:22:00;;;;;;;0.20;0.20;;;0.40;44.60;12.80;88045.00;;;;5009785;28;20223;-73
2022/04/02 05:24:32;;;;;;;0.20;0.20;;;0.40;99.90;12.80;88045.00;;;;5006606;28;20270;-73
2022/04/02 05:27:00;;;;;;;0.20;0.20;;;0.30;94.30;12.80;88045.00;;;;4996139;28;20661;-75
2022/04/02 05:29:29;;;;;;;0.20;0.20;;;0.40;99.90;12.80;88045.00;;;;5010552;28;20250;-74
2022/04/02 05:31:57;;;;;;;0.20;0.20;;;0.40;75.10;12.80;88045.00;;;;5023425;28;20235;-76
2022/04/02 05:34:25;;;;;;;0.20;0.20;;;0.40;93.90;12.80;88045.00;;;;5028244;28;20196;-76
2022/04/02 05:36:59;;;;;;;0.20;0.20;;;0.40;75.30;12.80;88045.00;;;;5014151;28;20188;-73
2022/04/02 05:39:27;;;;;;;0.17;0.17;;;0.30;1.00;12.80;88045.00;;;;5011403;28;20239;-75
2022/04/02 05:41:58;;;;;;;0.10;0.10;;;0.30;54.20;12.80;88045.00;;;;5014420;28;20390;-73
2022/04/02 05:44:26;;;;;;;0.10;0.10;;;0.30;70.90;12.80;88045.00;;;;5025329;28;20735;-73
2022/04/02 05:46:55;;;;;;;0.17;0.17;;;0.30;1.00;12.80;88045.00;;;;5023500;28;20564;-72
2022/04/02 05:49:41;;;;;;;0.10;0.10;;;0.30;10.50;12.80;88045.00;;;;5014370;28;20196;-73
2022/04/02 05:52:09;;;;;;;0.20;0.20;;;0.40;1.00;12.80;88045.00;;;;5014096;28;20227;-74
2022/04/02 05:54:37;;;;;;;0.20;0.20;;;0.40;1.00;12.80;88045.00;;;;5014090;28;20211;-73
2022/04/02 05:57:06;;;;;;;0.20;0.20;;;0.40;1.00;12.80;88045.00;;;;5014551;28;20215;-72
2022/04/02 05:59:34;;;;;;;0.10;0.10;;;0.40;1.00;12.80;88045.00;;;;5022038;28;20211;-73
2022/04/02 06:02:05;;;;;;;0.20;0.20;;;0.30;1.00;12.80;88045.00;;;;5028028;28;20219;-73
2022/04/02 06:04:34;;;;;;;0.20;0.20;;;0.30;1.00;12.80;88045.00;;;;5021295;28;20208;-71
2022/04/02 06:07:02;;;;;;;0.20;0.20;;;0.30;53.00;12.80;88045.00;;;;5020574;28;20206;-71
2022/04/02 06:09:30;;;;;;;0.20;0.20;;;0.40;44.10;12.80;88045.00;;;;5017341;28;20209;-71
2022/04/02 06:11:58;;;;;;;0.20;0.20;;;0.40;1.00;12.80;88045.00;;;;5015511;28;20216;-70
2022/04/02 06:14:26;;;;;;;0.20;0.20;;;0.40;1.00;12.80;88045.00;;;;5015817;28;20188;-70
2022/04/02 06:16:54;;;;;;;0.20;0.20;;;0.40;1.00;12.80;88045.00;;;;5015400;28;20199;-71
2022/04/02 06:19:24;;;;;;;0.20;0.20;;;0.40;1.00;12.80;88045.00;;;;5025224;28;20212;-72
2022/04/02 06:21:52;;;;;;;0.20;0.20;;;0.40;1.00;12.80;88045.00;;;;5026703;28;20211;-71
2022/04/02 06:24:20;;;;;;;0.20;0.20;;;0.40;1.00;12.80;88045.00;;;;5013490;28;20198;-72
2022/04/02 06:26:48;;;;;;;0.20;0.20;;;0.40;1.00;12.80;88045.00;;;;5013102;28;20194;-72
2022/04/02 06:29:16;;;;;;;0.10;0.10;;;0.40;1.00;12.80;88045.00;;;;5013361;28;20677;-71
2022/04/02 06:31:44;;;;;;;0.20;0.20;;;0.40;1.00;12.80;88045.00;;;;5013075;28;20216;-72
2022/04/02 06:34:13;;;;;;;0.20;0.20;;;0.40;1.00;12.80;88045.00;;;;5011043;28;20230;-71
2022/04/02 06:36:43;;;;;;;0.20;0.20;;;0.30;1.00;12.80;88045.00;;;;5011957;28;20696;-73
2022/04/02 06:39:12;;;;;;;0.10;0.10;;;0.30;67.90;12.80;88045.00;;;;5012896;28;20215;-73
2022/04/02 06:41:40;;;;;;;0.20;0.20;;;0.40;48.90;12.80;88045.00;;;;5017734;28;20215;-71
2022/04/02 06:44:09;;;;;;;0.20;0.20;;;0.40;99.90;12.80;88045.00;;;;5019735;28;20204;-72
2022/04/02 06:46:38;;;;;;;0.17;0.17;;;0.40;1.00;12.80;88045.00;;;;5027922;28;20203;-72
2022/04/02 06:49:09;;;;;;;0.20;0.20;;;0.40;1.00;12.80;88045.00;;;;5024705;28;20200;-72
2022/04/02 06:51:38;;;;;;;0.10;0.10;;;0.40;99.90;12.80;88045.00;;;;5011995;28;20624;-72
2022/04/02 06:54:07;;;;;;;0.20;0.20;;;0.40;99.90;12.80;88045.00;;;;5012780;28;20748;-72
2022/04/02 06:56:35;;;;;;;0.20;0.20;;;0.50;99.90;12.80;88045.00;;;;5012204;28;20676;-72
2022/04/02 06:59:03;;;;;;;0.20;0.20;;;0.50;99.90;12.80;88045.00;;;;5012714;28;20204;-72
2022/04/02 07:01:31;;;;;;;0.20;0.20;;;0.40;99.90;12.80;88045.00;;;;5042714;28;20606;-72
2022/04/02 07:03:59;;;;;;;0.20;0.20;;;0.40;99.90;12.80;88045.00;;;;5013255;28;20230;-72
2022/04/02 07:06:27;;;;;;;0.10;0.10;;;0.50;99.90;12.80;88045.00;;;;5011969;28;20188;-72
2022/04/02 07:08:55;;;;;;;0.20;0.20;;;0.60;99.90;12.80;88045.00;;;;5012391;28;20672;-71
2022/04/02 07:11:25;;;;;;;0.20;0.20;;;0.60;99.90;12.80;88045.00;;;;5013265;28;20216;-71
2022/04/02 07:13:53;;;;;;;0.20;0.20;;;0.60;99.90;12.80;88045.00;;;;5012744;28;20196;-71
2022/04/02 07:16:21;;;;;;;0.20;0.20;;;0.60;99.90;12.80;88045.00;;;;5012402;28;20274;-71
2022/04/02 07:18:50;;;;;;;0.10;0.10;;;0.60;99.90;12.80;88045.00;;;;5012783;28;20191;-72
2022/04/02 07:21:20;;;;;;;0.20;0.20;;;0.60;99.90;12.80;88045.00;;;;5012032;28;20218;-71
2022/04/02 07:23:49;;;;;;;0.20;0.20;;;0.60;99.90;12.80;88045.00;;;;5012460;28;20199;-71
2022/04/02 07:26:20;;;;;;;0.20;0.20;;;0.60;99.90;12.80;88045.00;;;;5012531;28;20580;-71
2022/04/02 07:28:51;;;;;;;0.20;0.20;;;0.60;99.90;12.80;88045.00;;;;5012106;28;20188;-71
2022/04/02 07:31:19;;;;;;;0.20;0.20;;;0.60;99.90;12.80;88045.00;;;;5012865;28;20716;-70
2022/04/02 07:33:48;;;;;;;0.10;0.10;;;0.70;99.90;12.80;88045.00;;;;5020138;28;20269;-70
2022/04/02 07:36:28;;;;;;;0.10;0.10;;;0.80;99.90;12.80;88045.00;;;;5019303;28;20198;-71
2022/04/02 07:39:04;;;;;;;0.20;0.20;;;0.70;99.90;12.80;88045.00;;;;5009783;28;20196;-71
2022/04/02 07:41:43;;;;;;;0.20;0.20;;;0.80;99.90;12.80;88045.00;;;;5012561;28;20219;-72
2022/04/02 07:44:30;;;;;;;0.20;0.20;;;0.90;99.90;12.80;88045.00;;;;5012966;28;20274;-70
2022/04/02 07:47:00;;;;;;;0.15;0.15;;;0.80;99.90;12.80;88045.00;;;;5011742;28;20207;-70
2022/04/02 07:49:30;;;;;;;0.20;0.20;;;0.80;99.90;12.80;88045.00;;;;5012335;28;20191;-70
2022/04/02 07:51:59;;;;;;;0.20;0.20;;;0.80;99.90;12.80;88045.00;;;;5011958;28;20223;-72
2022/04/02 07:54:32;;;;;;;0.20;0.20;;;0.80;99.90;12.80;88045.00;;;;5012311;28;20204;-70
2022/04/02 07:57:05;;;;;;;0.20;0.20;;;0.90;99.90;12.80;88045.00;;;;5010221;28;20218;-70
2022/04/02 07:59:45;;;;;;;0.13;0.13;;;0.90;99.90;12.80;88045.00;;;;5009589;28;20247;-72
2022/04/02 08:05:28;;;;;;;0.20;0.20;;;1.00;99.90;12.80;88045.00;;;;4958438;28;20805;-72
2022/04/02 08:08:13;;;;;;;0.20;0.20;;;1.10;99.90;12.80;88045.00;;;;5007319;28;20192;-70
2022/04/02 08:11:05;;;;;;;0.20;0.20;;;1.20;93.20;12.80;88045.00;;;;5016311;28;20219;-70
2022/04/02 08:13:46;;;;;;;0.20;0.20;;;1.20;99.90;12.80;88045.00;;;;5017094;28;20250;-70
2022/04/02 08:16:42;;;;;;;0.20;0.20;;;1.20;1.00;12.80;88045.00;;;;5024165;28;20873;-70
2022/04/02 08:19:23;;;;;;;0.20;0.20;;;1.20;1.00;12.80;88045.00;;;;5018204;28;20253;-70
2022/04/02 08:21:51;;;;;;;0.20;0.20;;;1.30;1.00;12.80;88045.00;;;;5017090;28;20238;-70
2022/04/02 08:24:19;;;;;;;0.13;0.13;;;1.30;1.00;12.80;88045.00;;;;5018105;28;20192;-70
2022/04/02 08:27:01;;;;;;;0.10;0.10;;;1.40;1.00;12.80;88045.00;;;;5016422;28;20183;-70
2022/04/02 08:29:56;;;;;;;0.20;0.20;;;1.40;1.00;12.80;88045.00;;;;5014606;28;20219;-70
2022/04/02 08:32:59;;;;;;;0.20;0.20;;;1.40;1.00;12.80;88045.00;;;;5007774;28;20250;-70
2022/04/02 08:35:39;;;;;;;0.20;0.20;;;1.40;1.00;12.80;88045.00;;;;5014584;28;20199;-71
2022/04/02 08:38:27;;;;;;;0.20;0.20;;;1.50;1.00;12.80;88045.00;;;;5015873;28;20195;-70
2022/04/02 08:41:52;;;;;;;0.10;0.10;;;1.60;1.00;12.80;88045.00;;;;5014353;28;20287;-71
2022/04/02 08:45:04;;;;;;;0.10;0.10;;;1.70;1.00;12.80;88045.00;;;;5022550;28;20661;-71
2022/04/02 08:48:25;;;;;;;0.10;0.10;;;1.70;1.00;12.80;88045.00;;;;5013606;28;20188;-71
2022/04/02 08:51:14;;;;;;;0.13;0.13;;;1.80;99.90;12.80;88045.00;;;;5009386;28;20318;-71
2022/04/02 08:53:54;;;;;;;0.20;0.20;;;1.70;99.90;12.80;88045.00;;;;5040028;22;20238;-73
2022/04/02 08:56:25;;;;;;;0.20;0.20;;;1.60;99.90;12.80;88045.00;;;;5014423;28;20215;-73
2022/04/02 08:59:04;;;;;;;0.10;0.10;;;1.70;99.90;12.80;88045.00;;;;5014531;28;20196;-73
2022/04/02 09:01:50;;;;;;;0.20;0.20;;;1.70;99.90;12.80;88045.00;;;;5013076;28;20231;-73
2022/04/02 09:04:58;;;;;;;0.20;0.20;;;1.80;1.00;12.80;88045.00;;;;5007142;28;20672;-73
2022/04/02 09:08:35;;;;;;;0.20;0.20;;;1.90;1.00;12.80;88045.00;;;;5013554;28;20187;-73
2022/04/02 09:11:23;;;;;;;0.10;0.10;;;2.00;1.00;12.80;88045.00;;;;5013778;28;20215;-73
2022/04/02 09:14:42;;;;;;;0.10;0.10;;;2.20;99.90;12.80;88045.00;;;;5030349;28;20203;-73
2022/04/02 09:17:36;;;;;;;0.13;0.13;;;2.30;1.00;12.80;88045.00;;;;4985112;28;20216;-73
2022/04/02 09:20:21;;;;;;;0.20;0.20;;;2.30;1.00;12.80;88045.00;;;;5012878;28;20202;-73
2022/04/02 09:23:07;;;;;;;0.10;0.10;;;2.40;1.00;12.80;88045.00;;;;5014164;28;20202;-73
2022/04/02 09:26:33;;;;;;;0.10;0.10;;;2.40;1.00;12.80;88045.00;;;;5006834;28;20223;-74
2022/04/02 09:29:15;;;;;;;0.10;0.10;;;2.40;1.00;12.80;88045.00;;;;5014860;28;20194;-73
2022/04/02 09:32:32;;;;;;;0.10;0.10;;;2.50;99.90;12.80;88045.00;;;;5012419;28;20203;-73
2022/04/02 09:36:03;;;;;;;0.10;0.10;;;2.50;99.90;12.80;88045.00;;;;4983455;28;20239;-73
2022/04/02 09:39:06;;;;;;;0.17;0.17;;;2.50;1.00;12.80;88045.00;;;;5000088;28;20215;-73
2022/04/02 09:42:18;;;;;;;0.10;0.10;;;2.60;72.60;12.80;88045.00;;;;5002888;28;20692;-72
2022/04/02 09:45:00;;;;;;;0.20;0.20;;;2.70;1.00;12.80;88045.00;;;;4997670;28;20254;-72
2022/04/02 09:48:02;;;;;;;0.20;0.20;;;2.90;99.90;12.80;88045.00;;;;5017924;28;20192;-73
2022/04/02 09:50:31;;;;;;;0.10;0.10;;;2.90;99.90;12.80;88045.00;;;;5013667;28;20207;-73
2022/04/02 09:53:19;;;;;;;0.15;0.15;;;3.00;1.00;12.80;88045.00;;;;5013716;28;20603;-73
2022/04/02 09:56:13;;;;;;;0.10;0.10;;;2.90;99.90;12.80;88045.00;;;;5013271;28;20227;-73
2022/04/02 09:59:03;;;;;;;0.10;0.10;;;3.00;1.00;12.80;88045.00;;;;5010904;28;20198;-73
2022/04/02 10:01:40;;;;;;;0.10;0.10;;;3.00;1.00;12.80;88045.00;;;;5008534;28;20227;-73
2022/04/02 10:04:39;;;;;;;0.10;0.10;;;3.00;1.00;12.80;88045.00;;;;5005442;28;20278;-74
2022/04/02 10:07:24;;;;;;;0.10;0.10;;;3.20;99.90;12.80;88045.00;;;;5013007;28;20203;-73
2022/04/02 10:09:56;;;;;;;0.10;0.10;;;3.20;1.00;12.80;88045.00;;;;5013060;28;20195;-73
2022/04/02 10:12:28;;;;;;;0.10;0.10;;;3.40;99.90;12.80;88045.00;;;;5011868;28;20200;-72
2022/04/02 10:15:00;;;;;;;0.10;0.10;;;3.40;1.00;12.80;88045.00;;;;5013841;28;20688;-73
2022/04/02 10:17:32;;;;;;;0.10;0.10;;;3.40;99.90;12.80;88045.00;;;;5013299;28;20704;-74
2022/04/02 10:20:01;;;;;;;0.10;0.10;;;3.30;1.00;12.80;88045.00;;;;5013167;28;20541;-74
2022/04/02 10:22:40;;;;;;;0.10;0.10;;;3.30;99.90;12.80;88045.00;;;;5012088;28;20235;-73
2022/04/02 10:25:12;;;;;;;0.10;0.10;;;3.20;1.00;12.80;88045.00;;;;5012972;28;20266;-73
2022/04/02 10:27:43;;;;;;;0.10;0.10;;;3.40;1.00;12.80;88045.00;;;;5013111;28;20242;-74
2022/04/02 10:30:13;;;;;;;0.10;0.10;;;3.50;1.00;12.80;88045.00;;;;5012668;28;20200;-73
2022/04/02 10:33:26;;;;;;;0.10;0.10;;;3.60;1.00;12.80;88045.00;;;;5012122;28;20207;-74
2022/04/02 10:35:47;;;;;;;0.10;0.10;;;3.80;1.00;12.80;88045.00;;;;5008561;28;20289;-74
2022/04/02 10:38:38;;;;;;;0.10;0.10;;;4.00;99.90;12.80;88045.00;;;;5007206;28;20200;-73
2022/04/02 10:41:12;;;;;;;0.10;0.10;;;4.10;99.90;12.80;88045.00;;;;4992519;28;20236;-73
2022/04/02 10:43:52;;;;;;;0.10;0.10;;;4.10;99.90;12.80;88045.00;;;;5013324;28;20680;-74
2022/04/02 10:46:25;;;;;;;0.10;0.10;;;4.20;99.90;12.80;88045.00;;;;5013251;28;20202;-73
2022/04/02 10:48:59;;;;;;;0.10;0.10;;;4.20;99.90;12.80;88045.00;;;;5013257;28;20455;-73
2022/04/02 10:51:30;;;;;;;0.10;0.10;;;4.10;1.00;12.80;88045.00;;;;5013073;28;20686;-73
2022/04/02 10:54:04;;;;;;;0.10;0.10;;;4.10;99.90;12.80;88045.00;;;;5013359;28;20304;-74
2022/04/02 10:56:43;;;;;;;0.10;0.10;;;4.00;99.90;12.80;88045.00;;;;5013392;28;20203;-73
2022/04/02 10:59:14;;;;;;;0.10;0.10;;;4.00;99.90;12.80;88045.00;;;;5014288;28;20676;-73
2022/04/02 11:01:45;;;;;;;0.10;0.10;;;4.00;99.90;12.80;88045.00;;;;5012612;28;20560;-73
2022/04/02 11:04:28;;;;;;;0.10;0.10;;;4.00;1.00;12.80;88045.00;;;;5012901;28;20215;-73
2022/04/02 11:06:58;;;;;;;0.10;0.10;;;4.10;99.90;12.80;88045.00;;;;5002116;28;20199;-73
2022/04/02 11:09:32;;;;;;;0.10;0.10;;;4.10;1.00;12.80;88045.00;;;;5012567;28;20202;-73
2022/04/02 11:12:07;;;;;;;0.10;0.10;;;4.10;1.00;12.80;88045.00;;;;5012458;28;20196;-73
2022/04/02 11:14:41;;;;;;;0.10;0.10;;;4.20;1.00;12.80;88045.00;;;;5012151;28;20230;-73
2022/04/02 11:17:10;;;;;;;0.10;0.10;;;4.30;1.00;12.80;88045.00;;;;5011650;28;20249;-73
2022/04/02 11:19:57;;;;;;;0.10;0.10;;;4.40;1.00;12.80;88045.00;;;;5012159;28;20669;-73
2022/04/02 11:22:36;;;;;;;0.20;0.20;;;4.50;1.00;12.80;88045.00;;;;5012322;28;20720;-73
2022/04/02 11:25:08;;;;;;;0.10;0.10;;;4.60;99.90;12.80;88045.00;;;;5011588;28;20285;-73
2022/04/02 11:27:41;;;;;;;0.10;0.10;;;4.60;1.00;12.80;88045.00;;;;5011672;28;20203;-73
2022/04/02 11:30:12;;;;;;;0.10;0.10;;;4.60;1.00;12.80;88045.00;;;;5009048;28;20211;-73
2022/04/02 11:32:44;;;;;;;0.10;0.10;;;4.50;91.00;12.80;88045.00;;;;5011302;28;20208;-73
2022/04/02 11:35:16;;;;;;;0.10;0.10;;;4.50;1.00;12.80;88045.00;;;;5009907;28;20637;-72
2022/04/02 11:37:58;;;;;;;0.10;0.10;;;4.50;99.90;12.80;88045.00;;;;5014848;28;20203;-74
2022/04/02 11:40:29;;;;;;;0.10;0.10;;;4.50;99.90;12.80;88045.00;;;;5014164;28;20596;-73
2022/04/02 11:43:03;;;;;;;0.10;0.10;;;4.50;99.90;12.80;88045.00;;;;5014572;28;20216;-73
2022/04/02 11:45:33;;;;;;;0.10;0.10;;;4.60;99.90;12.80;88045.00;;;;5018387;28;20226;-73
2022/04/02 11:48:10;;;;;;;0.13;0.13;;;4.70;99.90;12.80;88045.00;;;;5020153;28;20199;-73